Comber, Canada
Current Conditions -  °F | °C
As of 10:00 PM on Friday 21 Nov 2014 (Local Time) from CYQG Reporting Station
Clear Clear  
Wind Chill:   Ceiling: Unl
Heat Index: 19°   Visibility: 15mi
Dew Point: 14°   Wind: 8mph
Humidity: 80%   Direction: 200°SSW
Pressure: 30.37"   Gusts: NA
Location:  42.23°N, 82.55°W
Report Text: CYQG 220300Z 20007KT 15SM SKC M07/M10 A3037 RMK SLP297
Loading
Personal Weather Stations






























Interactive Weather Map New forecast layout! Learn more

10-Day Weather Forecast

Advertisements
Track Severe Weather on mobile